createdAt,value
2023-04-12T00:01:20.943Z,8.94
2023-04-12T00:03:54.469Z,8.91
2023-04-12T00:06:27.813Z,9.00
2023-04-12T00:08:56.625Z,8.89
2023-04-12T00:11:25.426Z,8.88
2023-04-12T00:13:54.270Z,8.84
2023-04-12T00:16:25.021Z,8.87
2023-04-12T00:18:53.796Z,8.79
2023-04-12T00:21:24.396Z,8.71
2023-04-12T00:23:53.187Z,8.64
2023-04-12T00:26:22.478Z,8.68
2023-04-12T00:28:51.160Z,8.66
2023-04-12T00:31:19.764Z,8.55
2023-04-12T00:33:49.851Z,8.56
2023-04-12T00:36:18.836Z,8.51
2023-04-12T00:38:47.440Z,8.45
2023-04-12T00:41:16.463Z,8.37
2023-04-12T00:43:45.314Z,8.54
2023-04-12T00:46:14.381Z,8.47
2023-04-12T00:48:43.048Z,8.48
2023-04-12T00:51:13.308Z,8.33
2023-04-12T00:53:42.629Z,8.47
2023-04-12T00:56:12.377Z,8.46
2023-04-12T00:58:41.839Z,8.38
2023-04-12T01:01:10.826Z,8.36
2023-04-12T01:03:43.597Z,8.30
2023-04-12T01:06:30.054Z,8.41
2023-04-12T01:09:12.670Z,8.31
2023-04-12T01:11:47.016Z,8.27
2023-04-12T01:14:22.016Z,8.38
2023-04-12T01:16:55.466Z,8.24
2023-04-12T01:19:38.546Z,8.30
2023-04-12T01:22:38.906Z,8.24
2023-04-12T01:25:24.544Z,8.11
2023-04-12T01:27:58.730Z,8.31
2023-04-12T01:30:29.995Z,8.33
2023-04-12T01:33:02.494Z,8.41
2023-04-12T01:35:35.093Z,8.42
2023-04-12T01:38:05.927Z,8.44
2023-04-12T01:40:37.188Z,8.47
2023-04-12T01:43:08.960Z,8.44
2023-04-12T01:45:37.995Z,7.98
2023-04-12T01:48:09.599Z,8.44
2023-04-12T01:50:46.277Z,8.33
2023-04-12T01:53:20.395Z,8.35
2023-04-12T01:55:50.456Z,8.37
2023-04-12T01:58:23.657Z,8.47
2023-04-12T02:00:54.568Z,8.40
2023-04-12T02:03:25.040Z,8.49
2023-04-12T02:05:55.042Z,8.54
2023-04-12T02:08:23.820Z,8.58
2023-04-12T02:10:52.907Z,8.56
2023-04-12T02:13:22.991Z,8.40
2023-04-12T02:15:54.799Z,8.45
2023-04-12T02:18:24.558Z,8.43
2023-04-12T02:20:53.168Z,8.18
2023-04-12T02:23:21.986Z,8.11
2023-04-12T02:25:50.705Z,8.05
2023-04-12T02:28:19.419Z,7.95
2023-04-12T02:30:49.659Z,8.06
2023-04-12T02:33:18.457Z,7.90
2023-04-12T02:35:47.907Z,7.90
2023-04-12T02:38:16.927Z,7.85
2023-04-12T02:40:45.655Z,7.78
2023-04-12T02:43:14.448Z,7.70
2023-04-12T02:45:43.868Z,7.51
2023-04-12T02:48:14.138Z,7.26
2023-04-12T02:50:42.704Z,7.52
2023-04-12T02:53:11.368Z,7.46
2023-04-12T02:55:40.756Z,7.40
2023-04-12T02:58:09.695Z,7.36
2023-04-12T03:00:38.378Z,7.14
2023-04-12T03:03:09.265Z,7.24
2023-04-12T03:05:39.963Z,7.19
2023-04-12T03:08:08.823Z,7.12
2023-04-12T03:10:37.525Z,7.06
2023-04-12T03:13:06.365Z,7.05
2023-04-12T03:15:35.232Z,7.01
2023-04-12T03:18:04.137Z,6.93
2023-04-12T03:20:33.853Z,6.98
2023-04-12T03:23:04.402Z,6.88
2023-04-12T03:25:33.317Z,6.83
2023-04-12T03:28:02.355Z,6.51
2023-04-12T03:30:31.291Z,6.70
2023-04-12T03:32:59.972Z,6.72
2023-04-12T03:35:28.821Z,6.71
2023-04-12T03:37:57.374Z,6.66
2023-04-12T03:40:28.062Z,6.58
2023-04-12T03:42:56.641Z,6.62
2023-04-12T03:45:26.012Z,6.54
2023-04-12T03:47:54.752Z,6.35
2023-04-12T03:50:24.314Z,6.14
2023-04-12T03:52:53.067Z,6.21
2023-04-12T03:55:21.794Z,5.73
2023-04-12T03:57:51.948Z,5.74
2023-04-12T04:00:20.583Z,5.44
2023-04-12T04:02:50.580Z,5.45
2023-04-12T04:05:19.549Z,5.52
2023-04-12T04:07:48.426Z,5.47
2023-04-12T04:10:17.413Z,5.32
2023-04-12T04:12:46.113Z,5.63
2023-04-12T04:15:17.283Z,5.70
2023-04-12T04:17:47.777Z,5.63
2023-04-12T04:20:16.584Z,5.02
2023-04-12T04:22:48.426Z,5.84
2023-04-12T04:25:17.736Z,5.83
2023-04-12T04:27:46.365Z,5.86
2023-04-12T04:30:17.193Z,5.79
2023-04-12T04:32:46.341Z,6.02
2023-04-12T04:35:17.118Z,5.98
2023-04-12T04:37:46.038Z,5.71
2023-04-12T04:40:15.537Z,6.03
2023-04-12T04:42:46.837Z,6.09
2023-04-12T04:45:17.465Z,6.09
2023-04-12T04:47:46.056Z,6.13
2023-04-12T04:50:14.728Z,6.15
2023-04-12T04:52:43.522Z,6.11
2023-04-12T04:55:13.316Z,6.38
2023-04-12T04:57:43.078Z,6.63
2023-04-12T05:00:13.638Z,6.69
2023-04-12T05:02:44.690Z,7.02
2023-04-12T05:05:14.398Z,7.26
2023-04-12T05:07:43.660Z,7.30
2023-04-12T05:10:13.478Z,7.46
2023-04-12T05:12:42.514Z,7.43
2023-04-12T05:15:12.642Z,7.39
2023-04-12T05:17:42.972Z,7.35
2023-04-12T05:20:12.413Z,7.32
2023-04-12T05:22:41.175Z,7.36
2023-04-12T05:25:10.955Z,7.41
2023-04-12T05:27:39.672Z,7.64
2023-04-12T05:30:09.824Z,7.72
2023-04-12T05:32:38.649Z,7.79
2023-04-12T05:35:09.602Z,7.83
2023-04-12T05:37:38.673Z,7.78
2023-04-12T05:40:10.073Z,7.72
2023-04-12T05:42:38.904Z,7.82
2023-04-12T05:45:08.629Z,7.64
2023-04-12T05:47:38.576Z,7.60
2023-04-12T05:50:11.956Z,7.74
2023-04-12T05:52:41.094Z,7.90
2023-04-12T05:55:10.377Z,8.19
2023-04-12T05:57:39.214Z,8.57
2023-04-12T06:00:13.554Z,8.71
2023-04-12T06:02:42.707Z,9.05
2023-04-12T06:05:13.222Z,9.30
2023-04-12T06:07:48.480Z,9.44
2023-04-12T06:10:18.314Z,9.18
2023-04-12T06:12:46.854Z,9.21
2023-04-12T06:15:15.512Z,9.34
2023-04-12T06:17:44.088Z,9.15
2023-04-12T06:20:16.132Z,9.12
2023-04-12T06:22:44.911Z,9.18
2023-04-12T06:25:13.636Z,9.17
2023-04-12T06:27:42.430Z,9.25
2023-04-12T06:30:11.965Z,9.31
2023-04-12T06:32:40.681Z,9.35
2023-04-12T06:35:09.966Z,9.10
2023-04-12T06:37:40.221Z,9.45
2023-04-12T06:40:11.646Z,9.44
2023-04-12T06:42:40.785Z,9.39
2023-04-12T06:45:10.155Z,9.06
2023-04-12T06:47:38.879Z,9.30
2023-04-12T06:50:08.764Z,9.32
2023-04-12T06:52:37.350Z,9.34
2023-04-12T06:55:08.921Z,9.50
2023-04-12T06:57:37.928Z,9.73
2023-04-12T07:00:07.701Z,9.69
2023-04-12T07:02:36.564Z,9.65
2023-04-12T07:05:05.520Z,10.18
2023-04-12T07:07:34.360Z,10.51
2023-04-12T07:10:04.741Z,10.71
2023-04-12T07:12:35.173Z,11.04
2023-04-12T07:15:03.853Z,11.42
2023-04-12T07:17:32.805Z,11.72
2023-04-12T07:20:01.442Z,11.91
2023-04-12T07:22:29.873Z,12.13
2023-04-12T07:24:58.503Z,12.17
2023-04-12T07:27:27.311Z,12.18
2023-04-12T07:29:58.664Z,12.17
2023-04-12T07:32:27.646Z,12.36
2023-04-12T07:34:56.417Z,12.52
2023-04-12T07:37:25.283Z,12.62
2023-04-12T07:39:54.196Z,12.98
2023-04-12T07:42:22.898Z,13.17
2023-04-12T07:44:51.483Z,12.95
2023-04-12T07:47:22.293Z,12.96
2023-04-12T07:49:51.094Z,13.32
2023-04-12T07:52:19.671Z,13.34
2023-04-12T07:54:48.260Z,13.27
2023-04-12T07:57:16.869Z,13.28
2023-04-12T07:59:45.453Z,13.32
2023-04-12T08:02:14.384Z,13.32
2023-04-12T08:04:46.045Z,13.31
2023-04-12T08:07:15.061Z,13.23
2023-04-12T08:09:43.701Z,13.19
2023-04-12T08:12:12.521Z,13.12
2023-04-12T08:14:41.253Z,13.26
2023-04-12T08:17:09.989Z,13.27
2023-04-12T08:19:38.700Z,13.31
2023-04-12T08:22:12.007Z,13.44
2023-04-12T08:24:41.778Z,13.41
2023-04-12T08:27:11.798Z,13.20
2023-04-12T08:29:40.288Z,13.25
2023-04-12T08:32:13.280Z,13.42
2023-04-12T08:34:44.763Z,13.48
2023-04-12T08:37:17.250Z,13.23
2023-04-12T08:39:46.197Z,13.48
2023-04-12T08:42:17.431Z,13.36
2023-04-12T08:44:46.327Z,13.29
2023-04-12T08:47:14.947Z,13.18
2023-04-12T08:49:43.607Z,13.32
2023-04-12T08:52:12.731Z,13.38
2023-04-12T08:54:42.837Z,13.43
2023-04-12T08:57:11.987Z,13.42
2023-04-12T08:59:43.994Z,13.31
2023-04-12T09:02:15.519Z,13.31
2023-04-12T09:04:51.129Z,13.42
2023-04-12T09:07:20.050Z,13.48
2023-04-12T09:09:50.549Z,13.38
2023-04-12T09:12:24.265Z,13.15
2023-04-12T09:15:10.032Z,13.13
2023-04-12T09:17:39.290Z,13.22
2023-04-12T09:20:26.582Z,13.26
2023-04-12T09:22:56.054Z,13.26
2023-04-12T09:25:45.461Z,13.20
2023-04-12T09:28:22.125Z,12.77
2023-04-12T09:30:53.283Z,13.20
2023-04-12T09:33:23.502Z,13.33
2023-04-12T09:35:52.658Z,13.50
2023-04-12T09:38:21.687Z,13.61
2023-04-12T09:40:52.260Z,13.59
2023-04-12T09:43:21.437Z,13.90
2023-04-12T09:45:50.184Z,13.96
2023-04-12T09:48:22.449Z,14.03
2023-04-12T09:51:00.497Z,14.02
2023-04-12T09:53:29.544Z,14.28
2023-04-12T09:56:00.906Z,14.43
2023-04-12T09:58:31.666Z,14.29
2023-04-12T10:01:02.709Z,14.17
2023-04-12T10:03:32.598Z,14.64
2023-04-12T10:06:01.546Z,14.71
2023-04-12T10:08:30.318Z,14.77
2023-04-12T10:11:01.146Z,14.82
2023-04-12T10:13:30.958Z,14.91
2023-04-12T10:16:01.713Z,15.26
2023-04-12T10:18:31.615Z,15.32
2023-04-12T10:21:00.927Z,15.47
2023-04-12T10:23:29.917Z,15.20
2023-04-12T10:26:01.501Z,15.36
2023-04-12T10:28:30.176Z,15.57
2023-04-12T10:30:59.482Z,15.78
2023-04-12T10:33:29.181Z,15.19
2023-04-12T10:36:04.154Z,15.15
2023-04-12T10:38:46.253Z,15.23
2023-04-12T10:41:21.004Z,15.01
2023-04-12T10:43:50.758Z,15.62
2023-04-12T10:46:53.105Z,15.80
2023-04-12T10:49:21.941Z,16.14
2023-04-12T10:52:14.118Z,16.08
2023-04-12T10:54:42.798Z,16.11
2023-04-12T10:57:42.702Z,15.67
2023-04-12T11:00:12.251Z,15.08
2023-04-12T11:03:12.751Z,15.07
2023-04-12T11:06:20.133Z,14.95
2023-04-12T11:08:57.274Z,15.10
2023-04-12T11:11:27.829Z,15.37
2023-04-12T11:14:00.028Z,15.67
2023-04-12T11:16:28.713Z,15.57
2023-04-12T11:18:58.009Z,15.39
2023-04-12T11:21:27.837Z,15.53
2023-04-12T11:23:57.175Z,15.45
2023-04-12T11:26:26.248Z,14.90
2023-04-12T11:28:56.418Z,15.58
2023-04-12T11:31:27.445Z,15.69
2023-04-12T11:33:56.530Z,15.51
2023-04-12T11:36:25.246Z,15.39
2023-04-12T11:38:57.357Z,15.39
2023-04-12T11:41:26.192Z,15.69
2023-04-12T11:43:54.917Z,15.74
2023-04-12T11:46:24.621Z,16.12
2023-04-12T11:48:55.806Z,16.22
2023-04-12T11:51:31.665Z,16.44
2023-04-12T11:54:01.256Z,16.60
2023-04-12T11:56:32.140Z,16.80
2023-04-12T11:59:00.889Z,16.58
2023-04-12T12:01:29.554Z,16.98
2023-04-12T12:04:01.353Z,16.58
2023-04-12T12:06:31.676Z,16.42
2023-04-12T12:09:01.059Z,16.51
2023-04-12T12:11:29.750Z,16.43
2023-04-12T12:14:03.636Z,16.20
2023-04-12T12:16:33.700Z,16.43
2023-04-12T12:19:06.338Z,16.66
2023-04-12T12:21:35.988Z,16.97
2023-04-12T12:24:04.679Z,17.18
2023-04-12T12:26:33.266Z,17.19
2023-04-12T12:29:02.022Z,16.56
2023-04-12T12:31:31.512Z,16.81
2023-04-12T12:34:04.220Z,16.97
2023-04-12T12:36:36.733Z,16.79
2023-04-12T12:39:09.609Z,16.98
2023-04-12T12:41:39.233Z,16.99
2023-04-12T12:44:08.412Z,17.23
2023-04-12T12:46:52.050Z,17.18
2023-04-12T12:49:22.567Z,16.99
2023-04-12T12:51:53.167Z,16.74
2023-04-12T12:54:39.431Z,16.66
2023-04-12T12:57:09.625Z,16.79
2023-04-12T12:59:38.428Z,16.83
2023-04-12T13:02:07.994Z,17.33
2023-04-12T13:04:36.883Z,17.59
2023-04-12T13:07:07.067Z,17.20
2023-04-12T13:09:35.752Z,17.28
2023-04-12T13:12:04.555Z,17.18
2023-04-12T13:14:33.311Z,17.23
2023-04-12T13:17:02.359Z,17.39
2023-04-12T13:19:30.942Z,17.50
2023-04-12T13:21:59.648Z,17.43
2023-04-12T13:24:29.878Z,17.11
2023-04-12T13:26:58.886Z,17.13
2023-04-12T13:29:27.672Z,17.13
2023-04-12T13:31:56.351Z,17.09
2023-04-12T13:34:25.044Z,17.24
2023-04-12T13:36:54.228Z,17.42
2023-04-12T13:39:24.609Z,17.56
2023-04-12T13:41:54.978Z,17.80
2023-04-12T13:44:23.728Z,17.95
2023-04-12T13:46:52.467Z,18.04
2023-04-12T13:49:21.048Z,18.28
2023-04-12T13:51:49.785Z,18.90
2023-04-12T13:54:18.370Z,19.54
2023-04-12T13:56:47.169Z,19.87
2023-04-12T13:59:17.852Z,20.17
2023-04-12T14:01:46.697Z,20.44
2023-04-12T14:04:15.376Z,20.95
2023-04-12T14:06:45.693Z,21.10
2023-04-12T14:09:25.759Z,20.50
2023-04-12T14:11:56.494Z,21.27
2023-04-12T14:14:28.670Z,21.35
2023-04-12T14:16:58.082Z,21.51
2023-04-12T14:19:27.543Z,21.46
2023-04-12T14:21:57.026Z,21.68
2023-04-12T14:24:26.907Z,21.19
2023-04-12T14:26:57.757Z,20.97
2023-04-12T14:29:28.217Z,21.23
2023-04-12T14:31:56.887Z,21.25
2023-04-12T14:34:25.504Z,21.77
2023-04-12T14:36:54.248Z,21.73
2023-04-12T14:39:24.562Z,22.02
2023-04-12T14:41:53.077Z,22.33
2023-04-12T14:44:23.933Z,21.74
2023-04-12T14:46:58.004Z,21.95
2023-04-12T14:49:26.927Z,22.33
2023-04-12T14:51:55.766Z,22.85
2023-04-12T14:54:24.486Z,23.16
2023-04-12T14:56:55.520Z,23.42
2023-04-12T14:59:25.229Z,20.81
2023-04-12T15:01:54.120Z,22.88
2023-04-12T15:04:24.558Z,22.69
2023-04-12T15:06:53.757Z,22.30
2023-04-12T15:09:22.390Z,21.93
2023-04-12T15:12:00.975Z,21.12
2023-04-12T15:14:30.326Z,20.63
2023-04-12T15:16:59.035Z,19.98
2023-04-12T15:19:29.832Z,19.73
2023-04-12T15:21:58.896Z,19.40
2023-04-12T15:24:27.630Z,19.32
2023-04-12T15:26:57.159Z,19.16
2023-04-12T15:29:29.333Z,19.04
2023-04-12T15:31:58.038Z,18.06
2023-04-12T15:34:30.134Z,18.58
2023-04-12T15:37:00.337Z,18.57
2023-04-12T15:39:29.231Z,18.43
2023-04-12T15:41:57.910Z,18.25
2023-04-12T15:44:31.977Z,18.12
2023-04-12T15:47:10.970Z,17.74
2023-04-12T15:49:41.888Z,17.71
2023-04-12T15:52:13.144Z,17.53
2023-04-12T15:54:44.029Z,17.49
2023-04-12T15:57:12.841Z,17.37
2023-04-12T15:59:42.452Z,17.52
2023-04-12T16:02:11.287Z,17.37
2023-04-12T16:04:40.698Z,17.26
2023-04-12T16:07:09.591Z,17.28
2023-04-12T16:09:40.660Z,17.09
2023-04-12T16:12:09.469Z,17.08
2023-04-12T16:14:39.687Z,16.51
2023-04-12T16:17:08.748Z,17.19
2023-04-12T16:19:37.786Z,17.45
2023-04-12T16:22:06.462Z,17.45
2023-04-12T16:24:35.123Z,17.50
2023-04-12T16:27:05.174Z,17.47
2023-04-12T16:29:33.772Z,17.39
2023-04-12T16:32:02.787Z,17.30
2023-04-12T16:34:31.886Z,17.35
2023-04-12T16:37:00.801Z,16.93
2023-04-12T16:39:29.390Z,17.06
2023-04-12T16:41:58.004Z,16.96
2023-04-12T16:44:27.964Z,16.86
2023-04-12T16:46:56.686Z,16.86
2023-04-12T16:49:26.817Z,16.67
2023-04-12T16:51:55.473Z,16.86
2023-04-12T16:54:24.232Z,16.80
2023-04-12T16:56:53.129Z,16.57
2023-04-12T16:59:21.902Z,16.68
2023-04-12T17:01:52.448Z,16.65
2023-04-12T17:04:21.197Z,16.34
2023-04-12T17:06:50.201Z,16.14
2023-04-12T17:09:18.729Z,15.99
2023-04-12T17:11:47.513Z,15.96
2023-04-12T17:14:16.820Z,15.83
2023-04-12T17:16:45.523Z,15.66
2023-04-12T17:19:15.555Z,15.59
2023-04-12T17:21:45.112Z,15.59
2023-04-12T17:24:13.858Z,15.46
2023-04-12T17:26:42.921Z,15.38
2023-04-12T17:29:11.555Z,14.97
2023-04-12T17:31:41.382Z,14.90
2023-04-12T17:34:10.217Z,14.81
2023-04-12T17:36:42.527Z,14.65
2023-04-12T17:39:11.761Z,14.43
2023-04-12T17:41:41.388Z,14.41
2023-04-12T17:44:10.345Z,14.40
2023-04-12T17:46:38.957Z,14.31
2023-04-12T17:49:09.138Z,14.16
2023-04-12T17:51:37.790Z,14.19
2023-04-12T17:54:08.103Z,13.70
2023-04-12T17:56:36.987Z,14.13
2023-04-12T17:59:05.923Z,13.98
2023-04-12T18:01:36.824Z,13.71
2023-04-12T18:04:07.491Z,13.82
2023-04-12T18:06:36.359Z,13.49
2023-04-12T18:09:07.339Z,13.62
2023-04-12T18:11:39.183Z,13.53
2023-04-12T18:14:08.042Z,13.46
2023-04-12T18:16:37.899Z,13.45
2023-04-12T18:19:08.552Z,12.42
2023-04-12T18:21:37.589Z,13.55
2023-04-12T18:24:07.159Z,13.13
2023-04-12T18:26:37.262Z,13.41
2023-04-12T18:29:06.041Z,13.32
2023-04-12T18:31:35.800Z,13.28
2023-04-12T18:34:04.550Z,13.36
2023-04-12T18:36:33.421Z,13.50
2023-04-12T18:39:02.241Z,13.33
2023-04-12T18:41:32.870Z,13.17
2023-04-12T18:44:03.092Z,13.11
2023-04-12T18:46:31.777Z,12.66
2023-04-12T18:49:00.381Z,12.71
2023-04-12T18:51:29.262Z,12.99
2023-04-12T18:53:59.385Z,13.06
2023-04-12T18:56:28.254Z,12.82
2023-04-12T18:58:57.391Z,12.99
2023-04-12T19:01:27.486Z,13.07
2023-04-12T19:03:57.495Z,13.03
2023-04-12T19:06:27.493Z,12.99
2023-04-12T19:08:56.345Z,12.93
2023-04-12T19:11:24.992Z,12.75
2023-04-12T19:13:53.748Z,12.74
2023-04-12T19:16:22.512Z,12.93
2023-04-12T19:18:52.668Z,12.88
2023-04-12T19:21:21.342Z,12.86
2023-04-12T19:23:50.544Z,13.05
2023-04-12T19:26:19.263Z,13.05
2023-04-12T19:28:47.864Z,12.96
2023-04-12T19:31:16.602Z,12.77
2023-04-12T19:33:59.047Z,12.61
2023-04-12T19:36:29.806Z,12.76
2023-04-12T19:38:58.295Z,12.77
2023-04-12T19:41:26.731Z,12.60
2023-04-12T19:43:55.289Z,12.89
2023-04-12T19:46:23.598Z,12.77
2023-04-12T19:48:52.807Z,12.85
2023-04-12T19:51:21.079Z,12.82
2023-04-12T19:53:53.244Z,12.68
2023-04-12T19:56:23.947Z,12.64
2023-04-12T19:58:54.728Z,12.59
2023-04-12T20:01:22.995Z,12.58
2023-04-12T20:03:51.242Z,12.45
2023-04-12T20:06:19.682Z,12.61
2023-04-12T20:08:47.938Z,12.39
2023-04-12T20:11:17.665Z,12.53
2023-04-12T20:13:46.342Z,12.37
2023-04-12T20:16:14.636Z,12.34
2023-04-12T20:18:42.876Z,12.39
2023-04-12T20:21:11.233Z,12.55
2023-04-12T20:23:39.425Z,12.01
2023-04-12T20:26:08.902Z,12.34
2023-04-12T20:28:38.868Z,12.34
2023-04-12T20:31:07.145Z,12.03
2023-04-12T20:33:35.328Z,11.72
2023-04-12T20:36:03.590Z,11.98
2023-04-12T20:38:31.973Z,12.08
2023-04-12T20:41:00.171Z,11.99
2023-04-12T20:43:28.482Z,11.87
2023-04-12T20:45:58.137Z,11.80
2023-04-12T20:48:26.476Z,12.03
2023-04-12T20:50:56.403Z,12.17
2023-04-12T20:53:24.655Z,12.25
2023-04-12T20:55:53.318Z,12.26
2023-04-12T20:58:21.594Z,12.31
2023-04-12T21:00:49.816Z,12.15
2023-04-12T21:03:19.675Z,11.70
2023-04-12T21:05:50.531Z,12.05
2023-04-12T21:08:18.739Z,11.92
2023-04-12T21:10:48.189Z,12.10
2023-04-12T21:13:16.420Z,11.92
2023-04-12T21:15:44.528Z,12.15
2023-04-12T21:18:12.686Z,12.23
2023-04-12T21:20:42.700Z,12.31
2023-04-12T21:23:11.906Z,12.37
2023-04-12T21:25:40.445Z,12.42
2023-04-12T21:28:08.598Z,12.35
2023-04-12T21:30:37.238Z,12.46
2023-04-12T21:33:05.463Z,12.54
2023-04-12T21:35:33.691Z,12.51
2023-04-12T21:38:03.319Z,12.50
2023-04-12T21:40:31.449Z,12.55
2023-04-12T21:42:59.711Z,12.50
2023-04-12T21:45:28.268Z,12.47
2023-04-12T21:47:57.095Z,12.39
2023-04-12T21:50:25.570Z,12.42
2023-04-12T21:52:55.101Z,12.33
2023-04-12T21:55:24.905Z,12.46
2023-04-12T21:57:53.106Z,12.36
2023-04-12T22:00:21.316Z,12.32
2023-04-12T22:02:49.648Z,12.36
2023-04-12T22:05:18.149Z,12.05
2023-04-12T22:07:46.300Z,12.36
2023-04-12T22:10:15.024Z,12.37
2023-04-12T22:12:50.638Z,12.27
2023-04-12T22:15:19.368Z,12.21
2023-04-12T22:17:47.830Z,11.97
2023-04-12T22:20:16.148Z,12.13
2023-04-12T22:22:44.326Z,11.92
2023-04-12T22:25:15.443Z,11.53
2023-04-12T22:27:46.572Z,12.07
2023-04-12T22:30:16.009Z,12.10
2023-04-12T22:32:44.276Z,12.10
2023-04-12T22:35:12.911Z,12.09
2023-04-12T22:37:41.568Z,12.10
2023-04-12T22:40:12.531Z,12.02
2023-04-12T22:42:46.963Z,11.54
2023-04-12T22:45:18.237Z,11.96
2023-04-12T22:47:47.695Z,11.93
2023-04-12T22:50:16.089Z,11.71
2023-04-12T22:52:44.219Z,11.47
2023-04-12T22:55:14.531Z,11.90
2023-04-12T22:57:42.961Z,11.70
2023-04-12T23:00:16.535Z,11.55
2023-04-12T23:02:48.723Z,11.58
2023-04-12T23:05:17.771Z,11.30
2023-04-12T23:07:46.028Z,11.85
2023-04-12T23:10:14.190Z,11.79
2023-04-12T23:12:42.370Z,11.89
2023-04-12T23:15:11.318Z,11.58
2023-04-12T23:17:39.635Z,11.42
2023-04-12T23:20:13.313Z,11.66
2023-04-12T23:22:57.231Z,11.75
2023-04-12T23:25:38.062Z,11.72
2023-04-12T23:28:07.684Z,11.34
2023-04-12T23:30:35.911Z,11.80
2023-04-12T23:33:04.554Z,11.76
2023-04-12T23:35:38.939Z,11.63
2023-04-12T23:38:07.263Z,11.70
2023-04-12T23:40:36.132Z,11.40
2023-04-12T23:43:04.308Z,11.44
2023-04-12T23:45:33.094Z,11.40
2023-04-12T23:48:01.657Z,11.37
2023-04-12T23:50:30.454Z,11.57
2023-04-12T23:53:00.035Z,11.56
2023-04-12T23:55:27.915Z,11.63
2023-04-12T23:57:56.054Z,11.34
